Time;durP1;ratioP1;P1;durP2;ratioP2;P2;SDS_P1;SDS_P2;PMS_P1;PMS_P2;Temp;Humidity;BMP_temperature;BMP_pressure;BME280_temperature;BME280_humidity;BME280_pressure;Samples;Min_cycle;Max_cycle;Signal;HPM_P1;HPM_P2
2021/08/09 00:02:03;;;;;;;12.93;5.12;;;;;;;18.47;72.77;99636.09;1767209;80;21031;-72
2021/08/09 00:04:35;;;;;;;11.10;5.15;;;;;;;18.46;72.51;99639.45;1771390;80;21022;-69
2021/08/09 00:07:03;;;;;;;14.47;5.87;;;;;;;18.44;72.45;99638.23;1778746;79;21026;-69
2021/08/09 00:09:31;;;;;;;12.53;5.58;;;;;;;18.38;72.53;99637.72;1764476;80;21063;-70
2021/08/09 00:12:00;;;;;;;11.05;5.28;;;;;;;18.33;72.74;99633.84;1773826;80;21047;-72
2021/08/09 00:14:30;;;;;;;9.10;5.20;;;;;;;18.31;72.90;99630.61;1771718;79;21130;-69
2021/08/09 00:16:59;;;;;;;9.15;5.70;;;;;;;18.29;73.06;99628.19;1771060;80;21061;-71
2021/08/09 00:19:29;;;;;;;11.43;5.42;;;;;;;18.29;72.91;99630.20;1767738;80;21433;-69
2021/08/09 00:22:00;;;;;;;12.88;6.08;;;;;;;18.25;72.86;99632.30;1773409;80;21756;-73
2021/08/09 00:24:28;;;;;;;11.40;5.85;;;;;;;18.24;72.84;99626.52;1767534;80;21000;-71
2021/08/09 00:26:55;;;;;;;15.78;6.15;;;;;;;18.23;72.95;99637.47;1773968;80;21291;-69
2021/08/09 00:29:24;;;;;;;11.78;5.83;;;;;;;18.25;72.94;99634.31;1765062;80;21019;-72
2021/08/09 00:31:52;;;;;;;13.93;6.08;;;;;;;18.26;72.81;99627.55;1773093;80;20992;-69
2021/08/09 00:34:19;;;;;;;8.75;5.90;;;;;;;18.23;72.64;99630.50;1770502;80;21247;-72
2021/08/09 00:36:47;;;;;;;11.73;5.83;;;;;;;18.18;72.69;99621.04;1773753;80;20969;-70
2021/08/09 00:39:14;;;;;;;9.48;5.33;;;;;;;18.11;72.79;99616.69;1768956;80;21170;-72
2021/08/09 00:41:42;;;;;;;9.70;5.58;;;;;;;18.08;72.91;99617.43;1778341;80;21023;-70
2021/08/09 00:44:08;;;;;;;16.67;5.50;;;;;;;18.09;73.04;99616.24;1762983;80;21570;-69
2021/08/09 00:46:36;;;;;;;9.00;5.87;;;;;;;18.06;72.99;99616.98;1772449;80;21484;-72
2021/08/09 00:49:04;;;;;;;15.13;6.55;;;;;;;18.03;73.05;99610.77;1769317;80;21538;-71
2021/08/09 00:51:37;;;;;;;12.60;5.78;;;;;;;17.99;73.18;99615.69;1773157;80;21512;-72
2021/08/09 00:54:10;;;;;;;13.78;6.10;;;;;;;17.97;73.41;99623.60;1755922;81;21031;-72
2021/08/09 00:56:40;;;;;;;14.20;6.83;;;;;;;17.96;73.53;99625.36;1739303;81;21088;-73
2021/08/09 00:59:08;;;;;;;11.45;6.60;;;;;;;17.95;73.45;99618.98;1741631;81;21101;-72
2021/08/09 01:01:38;;;;;;;9.48;5.67;;;;;;;17.95;73.46;99621.77;1738994;81;21018;-69
2021/08/09 01:04:10;;;;;;;8.48;5.53;;;;;;;17.94;73.49;99617.95;1749867;80;21520;-71
2021/08/09 01:06:41;;;;;;;7.65;5.10;;;;;;;17.93;73.38;99619.14;1744565;81;20995;-70
2021/08/09 01:09:30;;;;;;;8.43;6.05;;;;;;;17.95;73.53;99609.80;1729766;81;21089;-70
2021/08/09 01:12:09;;;;;;;9.55;6.45;;;;;;;17.96;73.52;99608.64;1747117;81;21488;-73
2021/08/09 01:15:09;;;;;;;8.75;6.05;;;;;;;17.94;73.53;99609.59;1745352;81;21083;-71
2021/08/09 01:17:42;;;;;;;9.95;6.10;;;;;;;17.89;73.62;99603.13;1758458;80;21138;-69
2021/08/09 01:20:39;;;;;;;17.50;6.70;;;;;;;17.83;73.52;99598.22;1759022;80;21024;-71
2021/08/09 01:23:29;;;;;;;12.82;6.15;;;;;;;17.78;73.66;99608.27;1738945;81;22020;-75
2021/08/09 01:26:10;;;;;;;13.40;6.53;;;;;;;17.73;74.01;99609.38;1746582;81;21539;-73
2021/08/09 01:28:39;;;;;;;10.07;6.37;;;;;;;17.62;74.24;99600.81;1747479;81;21481;-71
2021/08/09 01:31:10;;;;;;;9.53;5.80;;;;;;;17.54;74.54;99601.84;1724543;81;21493;-71
2021/08/09 01:33:41;;;;;;;13.18;6.15;;;;;;;17.50;74.81;99604.55;1743445;81;21011;-72
2021/08/09 01:36:08;;;;;;;11.83;6.37;;;;;;;17.49;75.04;99597.34;1747567;81;21068;-72
2021/08/09 01:38:38;;;;;;;12.28;6.58;;;;;;;17.51;75.05;99601.98;1748099;81;21060;-71
2021/08/09 01:41:10;;;;;;;8.73;5.87;;;;;;;17.54;74.95;99597.66;1737736;81;20995;-71
2021/08/09 01:43:37;;;;;;;9.95;6.10;;;;;;;17.56;74.92;99602.27;1723985;81;21126;-72
2021/08/09 01:46:04;;;;;;;10.95;6.50;;;;;;;17.60;74.81;99601.77;1741517;81;21027;-72
2021/08/09 01:48:35;;;;;;;9.70;6.35;;;;;;;17.62;74.64;99599.42;1745156;80;21020;-74
2021/08/09 01:51:05;;;;;;;6.25;5.28;;;;;;;17.61;74.64;99599.19;1742204;81;21039;-71
2021/08/09 01:53:34;;;;;;;12.40;6.12;;;;;;;17.61;74.70;99601.39;1717734;81;20996;-71
2021/08/09 01:56:04;;;;;;;9.65;6.17;;;;;;;17.62;74.69;99605.78;1717467;81;21336;-71
2021/08/09 01:58:32;;;;;;;12.40;6.05;;;;;;;17.63;74.52;99603.23;1741312;81;20996;-71
2021/08/09 02:00:58;;;;;;;17.00;6.35;;;;;;;17.64;74.34;99602.63;1741530;81;21044;-73
2021/08/09 02:03:27;;;;;;;9.63;5.40;;;;;;;17.63;74.20;99601.84;1719587;81;21039;-71
2021/08/09 02:05:53;;;;;;;12.63;6.12;;;;;;;17.57;74.38;99601.89;1744853;81;21024;-72
2021/08/09 02:08:23;;;;;;;8.85;5.67;;;;;;;17.54;74.56;99608.81;1738917;81;21786;-72
2021/08/09 02:11:01;;;;;;;14.98;7.03;;;;;;;17.52;74.93;99608.57;1751447;80;21036;-70
2021/08/09 02:13:39;;;;;;;10.58;5.97;;;;;;;17.54;74.93;99606.02;1747402;81;21045;-73
2021/08/09 02:16:15;;;;;;;8.93;6.50;;;;;;;17.55;74.91;99604.84;1741170;81;21582;-72
2021/08/09 02:18:59;;;;;;;12.00;6.42;;;;;;;17.56;74.83;99607.83;1745912;81;21009;-70
2021/08/09 02:21:35;;;;;;;8.65;5.78;;;;;;;17.55;74.60;99606.23;1752278;80;21039;-73
2021/08/09 02:24:07;;;;;;;10.05;5.95;;;;;;;17.49;74.76;99611.27;1749707;81;21021;-73
2021/08/09 02:26:47;;;;;;;16.48;6.42;;;;;;;17.47;74.90;99609.46;1717789;81;21020;-73
2021/08/09 02:29:17;;;;;;;14.98;7.12;;;;;;;17.44;74.88;99608.20;1740977;81;21015;-71
2021/08/09 02:31:50;;;;;;;13.13;7.13;;;;;;;17.39;75.17;99610.70;1746178;81;21013;-74
2021/08/09 02:34:21;;;;;;;15.18;6.28;;;;;;;17.41;75.25;99611.72;1746371;81;21620;-71
2021/08/09 02:36:49;;;;;;;17.20;6.50;;;;;;;17.44;75.02;99618.52;1726366;81;21034;-72
2021/08/09 02:39:17;;;;;;;10.43;6.42;;;;;;;17.40;74.75;99617.86;1738081;81;21054;-72
2021/08/09 02:41:45;;;;;;;13.13;6.95;;;;;;;17.37;74.87;99615.00;1749191;81;21060;-73
2021/08/09 02:44:12;;;;;;;13.45;6.55;;;;;;;17.34;75.05;99614.34;1745938;81;21497;-73
2021/08/09 02:46:40;;;;;;;9.95;6.28;;;;;;;17.32;75.22;99622.24;1748686;81;21883;-72
2021/08/09 02:49:10;;;;;;;7.83;5.97;;;;;;;17.28;75.45;99616.02;1744706;81;21095;-72
2021/08/09 02:51:38;;;;;;;12.98;7.03;;;;;;;17.28;75.59;99615.23;1740583;81;21086;-74
2021/08/09 02:54:06;;;;;;;12.98;6.65;;;;;;;17.29;75.70;99616.83;1713534;81;21055;-73
2021/08/09 02:56:36;;;;;;;10.78;6.33;;;;;;;17.31;75.63;99617.86;1738486;81;21271;-73
2021/08/09 02:59:05;;;;;;;7.83;6.20;;;;;;;17.31;75.67;99613.68;1736787;81;21550;-72
2021/08/09 03:01:34;;;;;;;10.85;6.37;;;;;;;17.29;75.70;99616.83;1769151;80;21058;-71
2021/08/09 03:04:05;;;;;;;14.75;7.72;;;;;;;17.24;76.01;99621.29;1750634;81;20993;-71
2021/08/09 03:06:34;;;;;;;13.80;7.05;;;;;;;17.25;76.19;99624.28;1738939;81;21538;-70
2021/08/09 03:09:04;;;;;;;12.78;7.30;;;;;;;17.29;76.08;99625.19;1720859;81;21535;-70
2021/08/09 03:11:36;;;;;;;12.68;7.28;;;;;;;17.33;75.77;99626.66;1751074;81;21960;-70
2021/08/09 03:14:03;;;;;;;12.53;7.80;;;;;;;17.37;75.65;99628.92;1749471;81;21129;-69
2021/08/09 03:16:34;;;;;;;11.68;7.22;;;;;;;17.40;75.58;99631.79;1773643;80;21538;-71
2021/08/09 03:19:03;;;;;;;12.63;7.25;;;;;;;17.45;75.60;99629.91;1771470;80;21071;-69
2021/08/09 03:21:33;;;;;;;12.68;6.58;;;;;;;17.48;75.28;99635.55;1768766;80;21024;-73
2021/08/09 03:24:06;;;;;;;10.08;6.97;;;;;;;17.51;75.29;99632.61;1771570;80;21063;-73
2021/08/09 03:26:34;;;;;;;12.68;6.55;;;;;;;17.54;75.19;99639.45;1768316;80;21006;-70
2021/08/09 03:29:05;;;;;;;14.45;7.00;;;;;;;17.55;74.97;99640.47;1742613;80;21038;-70
2021/08/09 03:31:34;;;;;;;13.72;6.92;;;;;;;17.55;74.85;99640.47;1770126;80;21031;-71
2021/08/09 03:34:00;;;;;;;12.20;6.45;;;;;;;17.52;74.83;99639.20;1737687;81;21582;-71
2021/08/09 03:36:29;;;;;;;13.28;6.75;;;;;;;17.48;75.15;99645.88;1736405;81;21083;-70
2021/08/09 03:38:59;;;;;;;17.92;8.70;;;;;;;17.46;75.44;99650.42;1733207;81;21036;-71
2021/08/09 03:41:27;;;;;;;25.23;12.47;;;;;;;17.46;75.89;99649.03;1742668;80;21063;-70
2021/08/09 03:43:56;;;;;;;23.05;12.98;;;;;;;17.54;76.09;99654.77;1770633;80;21063;-72
2021/08/09 03:46:27;;;;;;;29.95;14.58;;;;;;;17.58;76.07;99649.48;1761702;80;21052;-70
2021/08/09 03:48:55;;;;;;;28.25;14.78;;;;;;;17.61;76.18;99645.97;1768838;80;21238;-71
2021/08/09 03:51:24;;;;;;;25.27;14.70;;;;;;;17.65;76.38;99647.44;1769514;80;21022;-70
2021/08/09 03:53:53;;;;;;;25.25;14.63;;;;;;;17.72;76.68;99641.21;1768005;80;21055;-70
2021/08/09 03:56:23;;;;;;;24.25;15.63;;;;;;;17.78;76.86;99644.49;1772439;80;21399;-72
2021/08/09 03:58:51;;;;;;;25.37;13.93;;;;;;;17.81;77.07;99642.39;1775099;80;21049;-70
2021/08/09 04:01:18;;;;;;;25.70;13.70;;;;;;;17.81;77.24;99646.57;1769662;80;21158;-71
2021/08/09 04:03:47;;;;;;;28.12;13.78;;;;;;;17.85;77.39;99645.46;1771639;80;21028;-71
2021/08/09 04:06:16;;;;;;;24.57;13.72;;;;;;;17.93;77.65;99644.22;1757334;80;21037;-69
2021/08/09 04:08:44;;;;;;;26.57;15.35;;;;;;;18.01;77.63;99642.58;1754919;80;21122;-69
2021/08/09 04:11:13;;;;;;;27.15;13.83;;;;;;;18.10;77.47;99635.99;1754537;80;21005;-71
2021/08/09 04:13:41;;;;;;;26.12;14.65;;;;;;;18.19;77.34;99630.19;1759685;80;21506;-70
2021/08/09 04:16:10;;;;;;;35.70;15.45;;;;;;;18.27;77.32;99634.72;1784125;79;21036;-70
2021/08/09 04:18:39;;;;;;;39.92;15.63;;;;;;;18.33;77.22;99634.66;1759283;80;21490;-69
2021/08/09 04:21:10;;;;;;;30.97;14.40;;;;;;;18.38;77.31;99629.35;1776353;79;21089;-72
2021/08/09 04:23:39;;;;;;;23.18;13.95;;;;;;;18.44;77.33;99636.83;1789821;79;21036;-72
2021/08/09 04:26:10;;;;;;;30.17;14.58;;;;;;;18.52;77.41;99640.55;1772162;79;21036;-71
2021/08/09 04:28:46;;;;;;;22.58;15.13;;;;;;;18.63;77.50;99638.73;1785234;79;21035;-69
2021/08/09 04:31:18;;;;;;;28.77;15.60;;;;;;;18.72;77.44;99638.48;1793976;79;21035;-70
2021/08/09 04:33:48;;;;;;;28.77;15.78;;;;;;;18.83;77.27;99641.47;1771111;79;21489;-71
2021/08/09 04:36:18;;;;;;;29.85;14.07;;;;;;;18.91;77.08;99637.61;1786218;78;21020;-69
2021/08/09 04:38:45;;;;;;;31.45;15.28;;;;;;;19.02;76.85;99635.58;1788041;78;21551;-70
2021/08/09 04:41:12;;;;;;;32.88;15.25;;;;;;;19.09;76.82;99635.67;1784675;78;20989;-70
2021/08/09 04:43:41;;;;;;;27.22;13.83;;;;;;;19.15;76.86;99638.98;1753899;80;21532;-70
2021/08/09 04:46:09;;;;;;;26.07;14.05;;;;;;;19.25;76.77;99644.50;1781491;78;21079;-70
2021/08/09 04:48:41;;;;;;;25.32;14.68;;;;;;;19.34;76.65;99636.67;1791058;78;21043;-69
2021/08/09 04:51:08;;;;;;;24.63;14.50;;;;;;;19.43;76.52;99639.98;1785943;78;21450;-71
2021/08/09 04:53:37;;;;;;;24.57;13.62;;;;;;;19.53;76.48;99644.70;1781580;79;21063;-71
2021/08/09 04:56:04;;;;;;;32.17;14.55;;;;;;;19.61;76.45;99649.20;1782649;79;21539;-71
2021/08/09 04:58:35;;;;;;;21.70;12.65;;;;;;;19.71;76.17;99654.71;1749517;82;21007;-70
2021/08/09 05:01:02;;;;;;;23.52;11.75;;;;;;;19.80;76.01;99657.22;1779204;80;21510;-69
2021/08/09 05:03:29;;;;;;;28.38;12.93;;;;;;;19.91;75.92;99665.73;1781358;80;21667;-70
2021/08/09 05:05:58;;;;;;;23.92;12.07;;;;;;;20.01;75.77;99663.66;1731957;81;21063;-70
2021/08/09 05:08:25;;;;;;;28.55;14.63;;;;;;;20.14;75.69;99664.83;1774781;79;21015;-70
2021/08/09 05:10:57;;;;;;;27.32;13.95;;;;;;;20.25;76.08;99655.17;1774560;80;20996;-70
2021/08/09 05:13:24;;;;;;;26.50;12.45;;;;;;;20.34;75.92;99650.64;1811648;79;21004;-70
2021/08/09 05:15:54;;;;;;;26.93;12.73;;;;;;;20.45;75.91;99653.56;1778786;79;21538;-70
2021/08/09 05:18:25;;;;;;;23.50;12.85;;;;;;;20.55;75.79;99655.66;1763323;81;21070;-71
2021/08/09 05:20:52;;;;;;;23.92;12.07;;;;;;;20.66;75.57;99654.34;1733080;81;21043;-70
2021/08/09 05:23:20;;;;;;;33.83;14.38;;;;;;;20.76;75.22;99652.85;1763392;81;21071;-70
2021/08/09 05:25:47;;;;;;;26.40;12.60;;;;;;;20.89;75.48;99654.75;1763295;81;21035;-70
2021/08/09 05:28:14;;;;;;;30.17;12.53;;;;;;;21.04;75.46;99655.69;1763446;81;21454;-70
2021/08/09 05:30:43;;;;;;;46.20;14.10;;;;;;;21.15;75.23;99655.16;1733556;81;20980;-70
2021/08/09 05:33:13;;;;;;;33.55;12.68;;;;;;;21.27;74.76;99665.23;1763464;81;21118;-70
2021/08/09 05:35:44;;;;;;;30.50;13.15;;;;;;;21.38;74.13;99662.52;1763024;81;21075;-73
2021/08/09 05:38:15;;;;;;;39.08;14.38;;;;;;;21.48;73.32;99655.95;1762202;80;21023;-71
2021/08/09 05:40:42;;;;;;;22.62;12.23;;;;;;;21.59;72.99;99660.22;1762899;81;21132;-71
2021/08/09 05:43:09;;;;;;;34.92;13.22;;;;;;;21.69;72.21;99655.27;1763300;81;20993;-70
2021/08/09 05:45:36;;;;;;;32.00;11.70;;;;;;;21.78;71.88;99656.31;1763159;81;21546;-70
2021/08/09 05:48:07;;;;;;;40.52;12.90;;;;;;;21.85;71.50;99654.95;1767837;80;20997;-71
2021/08/09 05:50:34;;;;;;;19.25;9.25;;;;;;;21.92;70.97;99650.59;1769546;80;21061;-71
2021/08/09 05:53:08;;;;;;;28.15;8.25;;;;;;;21.99;70.69;99658.41;1756894;81;21516;-71
2021/08/09 05:55:36;;;;;;;23.47;8.58;;;;;;;22.07;68.66;99660.66;1756448;81;21054;-72
2021/08/09 05:58:07;;;;;;;19.35;7.58;;;;;;;22.15;68.11;99659.26;1770159;80;20939;-70
2021/08/09 06:00:36;;;;;;;19.85;6.55;;;;;;;22.22;67.68;99660.69;1739358;81;21019;-70
2021/08/09 06:03:09;;;;;;;13.00;6.60;;;;;;;22.28;66.23;99660.48;1753561;80;21623;-71
2021/08/09 06:05:40;;;;;;;20.35;7.50;;;;;;;22.34;65.77;99661.73;1740201;81;22132;-70
2021/08/09 06:08:07;;;;;;;16.12;7.05;;;;;;;22.41;65.15;99662.34;1725089;83;21018;-72
2021/08/09 06:10:38;;;;;;;19.30;8.10;;;;;;;22.47;64.40;99669.16;1725291;81;21058;-71
2021/08/09 06:13:08;;;;;;;19.57;7.72;;;;;;;22.56;63.87;99672.17;1750255;81;21012;-70
2021/08/09 06:15:42;;;;;;;25.72;8.35;;;;;;;22.61;62.25;99668.41;1739216;81;21046;-71
2021/08/09 06:18:09;;;;;;;18.98;8.33;;;;;;;22.68;62.80;99676.03;1737527;82;22153;-69
2021/08/09 06:20:39;;;;;;;28.62;8.40;;;;;;;22.73;63.33;99677.63;1759466;80;21032;-69
2021/08/09 06:23:06;;;;;;;27.93;8.43;;;;;;;22.77;63.20;99684.06;1757546;79;21011;-69
2021/08/09 06:25:34;;;;;;;24.70;7.95;;;;;;;22.82;61.27;99680.05;1753053;81;21094;-72
2021/08/09 06:28:02;;;;;;;19.50;7.72;;;;;;;22.88;59.58;99677.03;1725429;83;21036;-72
2021/08/09 06:30:33;;;;;;;25.85;7.70;;;;;;;22.93;58.24;99684.25;1756994;81;21064;-72
2021/08/09 06:32:59;;;;;;;16.17;6.83;;;;;;;22.98;59.01;99681.84;1757433;81;21023;-70
2021/08/09 06:35:31;;;;;;;16.93;7.33;;;;;;;23.05;59.76;99677.42;1757390;81;21513;-70
2021/08/09 06:38:05;;;;;;;13.98;6.60;;;;;;;23.12;59.40;99676.61;1756832;81;20991;-68
2021/08/09 06:40:35;;;;;;;21.90;7.08;;;;;;;23.17;59.34;99671.40;1730918;81;21082;-70
2021/08/09 06:43:05;;;;;;;23.20;8.38;;;;;;;23.26;59.46;99672.98;1740507;81;21133;-70
2021/08/09 06:45:34;;;;;;;25.77;7.53;;;;;;;23.34;59.51;99675.39;1732150;81;21489;-72
2021/08/09 06:48:07;;;;;;;29.20;8.10;;;;;;;23.39;58.86;99675.57;1715473;81;20980;-70
2021/08/09 06:50:37;;;;;;;21.95;7.97;;;;;;;23.47;57.85;99672.19;1746710;81;21030;-75
2021/08/09 06:53:07;;;;;;;14.13;6.83;;;;;;;23.52;57.44;99673.77;1746973;81;21062;-74
2021/08/09 06:55:38;;;;;;;13.28;5.60;;;;;;;23.60;57.87;99665.52;1746119;80;21024;-72
2021/08/09 06:58:05;;;;;;;12.98;5.12;;;;;;;23.68;57.41;99664.88;1754689;80;21095;-72
2021/08/09 07:00:31;;;;;;;8.75;4.85;;;;;;;23.75;56.51;99667.66;1751630;81;21028;-75
2021/08/09 07:03:08;;;;;;;13.20;5.45;;;;;;;23.80;53.48;99667.25;1764338;81;21510;-68
2021/08/09 07:05:43;;;;;;;18.98;5.53;;;;;;;23.85;53.75;99662.42;1766108;79;21001;-71
2021/08/09 07:08:12;;;;;;;21.33;6.30;;;;;;;23.92;54.81;99665.18;1764231;81;21130;-75
2021/08/09 07:10:41;;;;;;;12.20;4.78;;;;;;;23.97;55.29;99669.60;1770768;79;21024;-69
2021/08/09 07:13:12;;;;;;;11.43;5.37;;;;;;;24.00;55.11;99675.22;1764159;81;21063;-69
2021/08/09 07:15:41;;;;;;;16.77;5.55;;;;;;;24.05;53.68;99673.36;1774649;79;21469;-70
2021/08/09 07:18:09;;;;;;;13.40;6.15;;;;;;;24.14;54.55;99676.36;1747089;79;21030;-71
2021/08/09 07:20:38;;;;;;;10.65;4.53;;;;;;;24.23;55.16;99675.91;1763973;81;21766;-70
2021/08/09 07:23:08;;;;;;;16.35;4.50;;;;;;;24.29;54.03;99668.03;1774031;79;21055;-64
2021/08/09 07:25:42;;;;;;;10.82;5.15;;;;;;;24.38;54.09;99675.24;1771710;79;21081;-71
2021/08/09 07:28:11;;;;;;;13.55;4.00;;;;;;;24.45;52.65;99670.95;1777070;79;20991;-73
2021/08/09 07:30:39;;;;;;;8.43;5.33;;;;;;;24.57;52.16;99675.92;1760312;79;36417;-74
2021/08/09 07:33:09;;;;;;;9.25;3.77;;;;;;;24.64;53.03;99668.81;1763484;80;21151;-68
2021/08/09 07:35:38;;;;;;;10.15;3.83;;;;;;;24.72;51.35;99667.53;1773710;79;21040;-69
2021/08/09 07:38:16;;;;;;;6.72;3.25;;;;;;;24.79;51.55;99659.64;1772845;79;21076;-76
2021/08/09 07:40:46;;;;;;;10.72;3.60;;;;;;;24.87;50.79;99668.84;1775213;79;21084;-73
2021/08/09 07:43:14;;;;;;;7.78;3.08;;;;;;;24.93;49.60;99667.20;1765475;79;20992;-67
2021/08/09 07:45:42;;;;;;;9.13;3.67;;;;;;;24.99;49.77;99671.16;1764572;81;21151;-71
2021/08/09 07:48:12;;;;;;;9.50;3.47;;;;;;;25.06;49.32;99670.30;1769283;79;21027;-70
2021/08/09 07:50:42;;;;;;;6.53;2.90;;;;;;;25.12;49.09;99678.52;1766251;79;21656;-68
2021/08/09 07:53:13;;;;;;;7.50;2.67;;;;;;;25.22;49.68;99682.44;1785571;79;21543;-71
2021/08/09 07:55:47;;;;;;;2.73;2.30;;;;;;;25.33;49.77;99678.72;1777447;79;21035;-71
2021/08/09 07:58:16;;;;;;;3.08;2.08;;;;;;;25.44;49.79;99681.41;1769024;80;21139;-71
2021/08/09 08:00:51;;;;;;;3.50;2.33;;;;;;;25.55;49.43;99672.24;1761400;80;21031;-70
2021/08/09 08:03:17;;;;;;;6.97;2.85;;;;;;;25.65;48.93;99680.41;1774855;79;21079;-69
2021/08/09 08:05:48;;;;;;;5.45;2.08;;;;;;;25.72;46.58;99686.58;1784664;79;21090;-71
2021/08/09 08:08:17;;;;;;;4.83;2.15;;;;;;;25.76;46.66;99688.76;1781122;79;20984;-68
2021/08/09 08:10:45;;;;;;;6.47;3.80;;;;;;;25.81;47.00;99684.67;1765152;79;21039;-71
2021/08/09 08:13:15;;;;;;;7.90;3.40;;;;;;;25.86;46.43;99684.98;1782024;79;21028;-72
2021/08/09 08:15:42;;;;;;;4.37;2.10;;;;;;;25.95;46.78;99696.39;1782184;79;21043;-72
2021/08/09 08:18:10;;;;;;;4.95;3.80;;;;;;;25.96;45.60;99697.38;1783198;79;21015;-74
2021/08/09 08:20:47;;;;;;;5.15;3.00;;;;;;;25.97;43.46;99694.73;1763476;79;21015;-72
2021/08/09 08:23:16;;;;;;;3.02;2.22;;;;;;;25.98;43.76;99692.09;1781446;79;21135;-72
2021/08/09 08:27:01;;;;;;;9.08;2.72;;;;;;;26.03;44.79;99692.86;1736415;79;21082;-74
2021/08/09 08:32:51;;;;;;;5.17;2.35;;;;;;;26.21;44.32;99692.00;1740989;81;21172;-73
2021/08/09 08:35:23;;;;;;;8.90;3.12;;;;;;;26.28;44.96;99697.36;1775864;79;21129;-75
2021/08/09 08:37:53;;;;;;;7.10;2.67;;;;;;;26.34;44.79;99699.31;1728573;81;21825;-73
2021/08/09 08:40:23;;;;;;;11.67;1.97;;;;;;;26.40;44.79;99700.25;1729033;81;21040;-73
2021/08/09 08:42:55;;;;;;;12.20;2.12;;;;;;;26.46;45.01;99695.73;1744342;81;21050;-71
2021/08/09 08:45:23;;;;;;;7.67;2.62;;;;;;;26.55;45.29;99701.64;1767870;80;21015;-72
2021/08/09 08:47:55;;;;;;;12.40;2.62;;;;;;;26.62;42.13;99702.14;1765250;80;21000;-74
2021/08/09 08:50:24;;;;;;;7.85;2.60;;;;;;;26.59;42.87;99695.94;1734984;81;21148;-70
2021/08/09 08:52:52;;;;;;;8.10;2.70;;;;;;;26.63;44.20;99695.25;1733476;81;21079;-62
2021/08/09 08:55:20;;;;;;;6.22;2.40;;;;;;;26.70;46.00;99696.56;1750430;79;21639;-71
2021/08/09 08:57:49;;;;;;;7.20;2.55;;;;;;;26.77;44.07;99685.76;1749053;81;21074;-71
2021/08/09 09:00:17;;;;;;;3.58;2.10;;;;;;;26.81;44.13;99693.58;1752181;81;21034;-71
2021/08/09 09:02:45;;;;;;;3.20;2.10;;;;;;;26.90;44.33;99695.86;1776533;79;22113;-68
2021/08/09 09:05:23;;;;;;;7.28;2.33;;;;;;;26.97;44.63;99694.30;1753106;81;21098;-72
2021/08/09 09:07:55;;;;;;;5.62;2.27;;;;;;;26.95;43.31;99687.50;1778289;79;21058;-71
2021/08/09 09:10:31;;;;;;;8.43;2.25;;;;;;;27.00;45.26;99690.44;1755556;80;21155;-72
2021/08/09 09:13:15;;;;;;;7.40;2.27;;;;;;;27.11;46.51;99696.73;1754016;81;21036;-70
2021/08/09 09:16:10;;;;;;;6.87;2.80;;;;;;;27.18;45.06;99704.28;1749974;81;21094;-68
2021/08/09 09:18:56;;;;;;;11.55;3.42;;;;;;;27.19;42.71;99708.09;1779735;79;21067;-68
2021/08/09 09:21:35;;;;;;;8.45;2.50;;;;;;;27.19;43.22;99720.03;1777721;79;21006;-72
2021/08/09 09:24:13;;;;;;;3.50;2.58;;;;;;;27.22;41.69;99711.50;1780376;79;21089;-70
2021/08/09 09:26:47;;;;;;;2.80;2.30;;;;;;;27.27;43.30;99713.63;1762912;80;21009;-71
2021/08/09 09:29:20;;;;;;;9.75;2.87;;;;;;;27.34;42.85;99721.99;1765042;80;21249;-71
2021/08/09 09:32:04;;;;;;;6.03;2.55;;;;;;;27.38;43.42;99721.93;1760658;80;21091;-73
2021/08/09 09:34:28;;;;;;;4.80;2.70;;;;;;;27.43;43.18;99722.84;1789082;79;21064;-69
2021/08/09 09:36:59;;;;;;;7.70;2.60;;;;;;;27.46;43.01;99711.47;1779571;79;21610;-71
2021/08/09 09:39:40;;;;;;;7.25;2.47;;;;;;;27.57;43.39;99710.45;1777967;79;20992;-68
2021/08/09 09:42:14;;;;;;;5.55;3.22;;;;;;;27.66;44.44;99705.03;1754920;80;21122;-69
2021/08/09 09:44:43;;;;;;;5.67;2.60;;;;;;;27.76;43.59;99693.95;1753254;80;21044;-64
2021/08/09 09:47:21;;;;;;;6.80;3.05;;;;;;;27.80;42.71;99677.09;1756379;80;21064;-68
2021/08/09 09:50:00;;;;;;;4.85;2.83;;;;;;;27.84;43.01;99677.02;1756208;80;21539;-74
2021/08/09 09:52:39;;;;;;;11.78;3.72;;;;;;;27.92;44.68;99672.80;1723135;82;20995;-72
2021/08/09 09:55:12;;;;;;;4.55;2.98;;;;;;;28.02;44.38;99675.22;1764142;80;21566;-68
2021/08/09 09:57:47;;;;;;;2.87;2.42;;;;;;;28.10;45.44;99686.39;1742561;81;21540;-69
2021/08/09 10:00:20;;;;;;;3.90;3.02;;;;;;;28.09;42.46;99694.69;1765341;80;21089;-71
2021/08/09 10:02:49;;;;;;;4.35;2.92;;;;;;;28.04;44.65;99687.52;1745525;81;21094;-72
2021/08/09 10:05:16;;;;;;;4.33;2.90;;;;;;;28.13;46.09;99693.37;1748239;81;21038;-69
2021/08/09 10:07:48;;;;;;;4.08;2.85;;;;;;;28.23;45.20;99691.56;1718573;81;21456;-69
2021/08/09 10:10:23;;;;;;;;;;;;;;;28.26;45.03;99686.43;1739661;81;21140;-71
2021/08/09 10:12:52;;;;;;;9.30;3.98;;;;;;;28.29;44.38;99682.71;1747590;81;20510;-68
2021/08/09 10:15:22;;;;;;;3.42;2.65;;;;;;;28.33;43.20;99684.66;1737646;81;21000;-71
2021/08/09 10:17:50;;;;;;;2.80;2.22;;;;;;;28.42;43.17;99684.26;1740446;80;21058;-67
2021/08/09 10:20:18;;;;;;;2.65;2.35;;;;;;;28.53;43.56;99676.13;1755644;81;21538;-67
2021/08/09 10:22:59;;;;;;;11.00;2.70;;;;;;;28.61;43.29;99681.02;1739658;82;21048;-72
2021/08/09 10:25:51;;;;;;;4.85;2.45;;;;;;;28.67;42.37;99680.66;1756819;81;21057;-68
2021/08/09 10:28:19;;;;;;;5.57;3.43;;;;;;;28.68;42.04;99666.05;1746968;81;21038;-68
2021/08/09 10:30:50;;;;;;;7.75;3.20;;;;;;;28.69;40.91;99664.02;1732073;81;21058;-71
2021/08/09 10:33:19;;;;;;;8.18;3.15;;;;;;;28.68;41.04;99665.24;1752124;81;21140;-73
2021/08/09 10:35:56;;;;;;;6.95;3.60;;;;;;;28.67;40.40;99667.30;1700978;81;21106;-68
2021/08/09 10:38:28;;;;;;;4.05;2.37;;;;;;;28.68;40.05;99660.99;1755186;81;21019;-67
2021/08/09 10:41:18;;;;;;;5.30;2.90;;;;;;;28.67;39.03;99651.72;1753515;81;21090;-68
2021/08/09 10:44:11;;;;;;;4.90;3.42;;;;;;;28.68;40.40;99656.13;1734570;82;21063;-68
2021/08/09 10:46:43;;;;;;;6.00;2.90;;;;;;;28.79;41.92;99659.32;1756934;81;21191;-73
2021/08/09 10:49:42;;;;;;;4.10;2.67;;;;;;;28.91;41.85;99650.11;1754241;81;21077;-69
2021/08/09 10:52:08;;;;;;;5.70;3.17;;;;;;;28.99;40.63;99648.52;1773913;78;21693;-69
2021/08/09 10:54:37;;;;;;;15.20;3.25;;;;;;;28.98;39.96;99649.16;1786411;79;21027;-73
2021/08/09 10:57:08;;;;;;;4.10;2.30;;;;;;;29.01;42.18;99641.17;1789815;79;21106;-73
2021/08/09 10:59:44;;;;;;;3.65;2.72;;;;;;;29.09;42.37;99636.09;1760302;80;21071;-71
2021/08/09 11:02:24;;;;;;;8.58;2.92;;;;;;;29.21;42.23;99638.81;1787870;79;21032;-70
2021/08/09 11:05:19;;;;;;;5.67;3.10;;;;;;;29.32;41.72;99624.34;1788368;79;21602;-70
2021/08/09 11:07:46;;;;;;;4.70;3.10;;;;;;;29.37;40.87;99627.25;1770220;79;21008;-71
2021/08/09 11:10:18;;;;;;;2.75;2.22;;;;;;;29.40;41.21;99622.09;1777855;79;21037;-70
2021/08/09 11:13:00;;;;;;;6.62;2.92;;;;;;;29.47;40.44;99617.64;1746521;79;21009;-69
2021/08/09 11:15:28;;;;;;;9.13;3.98;;;;;;;29.59;40.14;99608.19;1790744;79;21071;-70
2021/08/09 11:18:00;;;;;;;10.10;2.72;;;;;;;29.72;39.29;99611.87;1789832;79;21055;-71
2021/08/09 11:20:31;;;;;;;;;;;;;;;29.72;37.98;99611.87;1792880;78;21079;-72
2021/08/09 11:23:15;;;;;;;2.95;2.33;;;;;;;29.68;38.04;99610.40;1786103;79;20153;-72
2021/08/09 11:25:49;;;;;;;6.92;2.40;;;;;;;29.69;39.88;99603.47;1749528;81;20956;-75
2021/08/09 11:28:23;;;;;;;6.00;2.77;;;;;;;29.77;39.70;99603.41;1751564;79;21083;-74
2021/08/09 11:31:04;;;;;;;4.67;2.67;;;;;;;29.83;38.21;99605.08;1737054;82;21090;-71
2021/08/09 11:33:39;;;;;;;6.75;2.42;;;;;;;29.87;37.91;99602.94;1744079;81;21050;-68
2021/08/09 11:36:14;;;;;;;5.00;2.20;;;;;;;29.82;36.90;99603.50;1728459;81;21492;-69
2021/08/09 11:38:49;;;;;;;2.87;2.30;;;;;;;29.76;36.32;99593.32;1698526;82;21786;-72
2021/08/09 11:41:23;;;;;;;5.25;2.55;;;;;;;29.76;37.27;99597.58;1742370;81;21023;-71
2021/08/09 11:44:07;;;;;;;6.70;2.75;;;;;;;29.79;36.26;99599.51;1737193;81;21000;-71
2021/08/09 11:46:48;;;;;;;7.28;2.50;;;;;;;29.79;37.15;99597.31;1735683;81;21099;-72
2021/08/09 11:49:17;;;;;;;5.17;2.33;;;;;;;29.78;37.11;99591.45;1730296;82;21060;-69
2021/08/09 11:51:48;;;;;;;6.30;2.70;;;;;;;29.76;36.14;99590.48;1764768;81;21048;-71